Accueil
METAR-TAF:

METAR-TAF

Aéroports :

Aéroport de Bologne-Borgo Panigale

Bologne, Italie

latitude: 44-32N, longitude: 011-18E, altitude: 36 m

Observation

Le bulletin a été fait il y a 33 minutes, à 22:50 UTC
Vent 8 kt de sud/sud-ouest
Température 9°C
Humidité 71%
Pression 1014 hPa
Visibilité 10 km ou plus

METAR: LIPE 282250Z AUTO 20008KT 9999 NCD 09/04 Q1014

Heure: 00:23 (23:23 UTC)

Prévision

Le bulletin a été fait il y a 6 heures et 23 minutes, à 17:00 UTC
Prévision valable du 28 à 18 UTC au 29 à 18 UTC
Vent 6 kt de sud-ouest
Visibilité 10 km ou plus
Nuages épars à une hauteur de 4000 ft
Evoluant progressivement
du 29 à 12 UTC au 29 à 14 UTC
Vent 10 kt de est/nord-est

TAF: LIPE 281700Z 2818/2918 22006KT 9999 SCT040 BECMG 2912/2914 07010KT

Observations et prévisions météorologiques de plus de 4000 aéroports (messages METAR et TAF).

Les stations disponibles sont représentées par des disques jaunes et rouges sur la carte.

Passer la souris dessus pour voir le nom de la station.

Cliquer dessus pour voir les observations et prévisions météorologiques.

Pour changer de carte: cliquez sur les boutons verts avec une croix noire pour zoomer, sur le bouton vert avec un tiret pour effectuer un zoom arrière, ou sur les flèches vertes pour les cartes adjacentes.


METAR-TAF: